createdAt,value
2022-09-12T00:10:25.188Z,17.13
2022-09-12T00:14:06.079Z,18.70
2022-09-12T00:28:26.244Z,18.80
2022-09-12T00:52:05.113Z,20.38
2022-09-12T01:07:10.380Z,20.17
2022-09-12T01:14:32.187Z,22.27
2022-09-12T01:25:40.163Z,21.63
2022-09-12T01:41:47.319Z,26.27
2022-09-12T02:01:11.244Z,25.73
2022-09-12T02:08:40.379Z,27.92
2022-09-12T02:12:33.932Z,26.35
2022-09-12T02:28:39.954Z,24.20
2022-09-12T03:13:36.040Z,25.08
2022-09-12T03:16:50.516Z,26.40
2022-09-12T04:18:14.023Z,25.48
2022-09-12T04:21:16.286Z,27.75
2022-09-12T04:35:10.338Z,31.27
2022-09-12T04:49:23.395Z,31.83
2022-09-12T04:55:59.551Z,30.10
2022-09-12T05:02:54.354Z,31.25
2022-09-12T05:08:48.070Z,30.08
2022-09-12T05:19:19.176Z,30.83
2022-09-12T05:22:50.325Z,30.70
2022-09-12T05:37:07.272Z,32.80
2022-09-12T05:40:50.985Z,33.50
2022-09-12T05:57:05.677Z,36.92
2022-09-12T06:00:05.189Z,37.20
2022-09-12T06:03:03.705Z,36.72
2022-09-12T06:10:28.598Z,37.67
2022-09-12T06:16:48.870Z,38.47
2022-09-12T06:31:35.066Z,37.95
2022-09-12T06:49:24.628Z,40.50
2022-09-12T09:07:45.323Z,15.70
2022-09-12T09:11:07.667Z,16.02
2022-09-12T09:28:21.121Z,11.60
2022-09-12T09:30:49.952Z,12.00
2022-09-12T09:33:24.823Z,11.63
2022-09-12T09:36:09.371Z,12.30
2022-09-12T09:38:50.131Z,8.95
2022-09-12T09:41:47.334Z,10.13
2022-09-12T09:44:15.619Z,9.45
2022-09-12T09:46:43.781Z,11.60
2022-09-12T09:49:15.548Z,8.50
2022-09-12T09:51:44.389Z,10.18
2022-09-12T09:54:22.427Z,9.27
2022-09-12T09:56:50.880Z,9.93
2022-09-12T09:59:22.036Z,11.43
2022-09-12T10:01:54.826Z,9.32
2022-09-12T10:04:26.894Z,10.63
2022-09-12T10:06:57.940Z,10.13
2022-09-12T10:09:29.264Z,11.65
2022-09-12T10:11:58.690Z,10.27
2022-09-12T10:14:38.493Z,10.40
2022-09-12T10:17:34.305Z,10.85
2022-09-12T10:20:25.439Z,12.40
2022-09-12T10:22:53.958Z,10.23
2022-09-12T10:25:24.698Z,12.57
2022-09-12T10:27:58.454Z,10.38
2022-09-12T10:30:29.186Z,10.70
2022-09-12T10:33:07.532Z,12.23
2022-09-12T10:35:49.769Z,10.52
2022-09-12T10:38:28.042Z,12.77
2022-09-12T10:41:03.421Z,9.57
2022-09-12T10:43:37.402Z,10.45
2022-09-12T10:46:39.349Z,9.85
2022-09-12T10:49:27.684Z,9.45
2022-09-12T10:52:00.222Z,8.43
2022-09-12T10:54:29.709Z,8.00
2022-09-12T10:57:52.027Z,9.48
2022-09-12T11:00:27.723Z,8.60
2022-09-12T11:03:07.137Z,9.27
2022-09-12T11:05:50.863Z,9.13
2022-09-12T11:08:37.950Z,9.65
2022-09-12T11:11:15.341Z,10.70
2022-09-12T11:14:01.374Z,7.65
2022-09-12T11:16:42.912Z,8.07
2022-09-12T11:19:47.960Z,7.57
2022-09-12T11:22:37.928Z,6.95
2022-09-12T11:25:29.941Z,9.02
2022-09-12T11:28:30.059Z,11.30
2022-09-12T11:31:19.029Z,7.32
2022-09-12T11:33:49.008Z,6.75
2022-09-12T11:36:34.823Z,9.73
2022-09-12T11:39:15.933Z,7.03
2022-09-12T11:41:51.254Z,8.15
2022-09-12T11:44:24.588Z,8.95
2022-09-12T11:46:52.937Z,8.27
2022-09-12T11:49:36.462Z,7.40
2022-09-12T11:52:12.800Z,6.85
2022-09-12T11:54:49.024Z,6.40
2022-09-12T11:57:30.595Z,6.43
2022-09-12T12:00:05.232Z,7.53
2022-09-12T12:02:42.992Z,7.35
2022-09-12T12:05:25.134Z,7.95
2022-09-12T12:07:56.258Z,10.48
2022-09-12T12:10:50.212Z,6.07
2022-09-12T12:13:23.463Z,7.10
2022-09-12T12:15:56.783Z,5.40
2022-09-12T12:18:28.363Z,6.28
2022-09-12T12:21:00.627Z,4.70
2022-09-12T12:23:31.341Z,5.82
2022-09-12T12:26:01.482Z,5.30
2022-09-12T12:29:00.901Z,5.95
2022-09-12T12:31:29.158Z,6.22
2022-09-12T12:34:28.856Z,4.60
2022-09-12T12:36:58.106Z,6.00
2022-09-12T12:40:03.086Z,5.72
2022-09-12T12:43:04.541Z,4.85
2022-09-12T12:46:12.879Z,5.25
2022-09-12T12:49:12.601Z,5.13
2022-09-12T12:51:59.035Z,5.32
2022-09-12T12:54:50.642Z,6.32
2022-09-12T12:57:47.952Z,4.93
2022-09-12T13:00:33.686Z,3.92
2022-09-12T13:03:12.173Z,4.85
2022-09-12T13:05:42.906Z,5.25
2022-09-12T13:08:28.697Z,6.00
2022-09-12T13:11:03.064Z,6.68
2022-09-12T13:13:37.923Z,5.57
2022-09-12T13:16:06.518Z,6.00
2022-09-12T13:18:45.558Z,5.07
2022-09-12T13:21:16.301Z,5.00
2022-09-12T13:23:45.838Z,7.00
2022-09-12T13:26:17.125Z,7.13
2022-09-12T13:28:46.082Z,4.82
2022-09-12T13:31:24.154Z,7.57
2022-09-12T13:33:57.943Z,6.32
2022-09-12T13:36:43.185Z,5.03
2022-09-12T13:39:22.181Z,5.88
2022-09-12T13:42:45.095Z,4.93
2022-09-12T13:45:18.516Z,6.03
2022-09-12T13:47:48.495Z,8.13
2022-09-12T13:50:23.758Z,8.35
2022-09-12T13:52:56.273Z,7.97
2022-09-12T13:55:32.134Z,4.70
2022-09-12T13:58:04.167Z,4.38
2022-09-12T14:00:35.011Z,6.05
2022-09-12T14:03:21.254Z,5.05
2022-09-12T14:05:59.080Z,5.93
2022-09-12T14:08:27.244Z,5.30
2022-09-12T14:10:55.632Z,6.32
2022-09-12T14:13:26.807Z,5.10
2022-09-12T14:15:59.886Z,5.35
2022-09-12T14:18:31.146Z,7.13
2022-09-12T14:21:10.432Z,4.05
2022-09-12T14:23:42.538Z,5.25
2022-09-12T14:26:13.747Z,5.93
2022-09-12T14:28:43.203Z,7.13
2022-09-12T14:31:25.869Z,6.80
2022-09-12T14:33:57.048Z,4.45
2022-09-12T14:36:32.094Z,6.88
2022-09-12T14:39:04.565Z,4.93
2022-09-12T14:41:37.305Z,5.28
2022-09-12T14:44:10.688Z,5.20
2022-09-12T14:46:40.549Z,5.40
2022-09-12T14:49:11.701Z,7.82
2022-09-12T14:51:51.494Z,4.32
2022-09-12T14:54:39.651Z,4.93
2022-09-12T14:57:31.148Z,6.60
2022-09-12T15:00:20.424Z,5.35
2022-09-12T15:02:49.827Z,6.10
2022-09-12T15:05:27.710Z,4.90
2022-09-12T15:08:01.391Z,4.50
2022-09-12T15:10:33.100Z,4.05
2022-09-12T15:13:25.837Z,3.95
2022-09-12T15:15:56.059Z,4.68
2022-09-12T15:18:26.894Z,4.35
2022-09-12T15:20:58.626Z,5.30
2022-09-12T15:23:40.327Z,6.00
2022-09-12T15:26:10.835Z,4.35
2022-09-12T15:28:39.201Z,4.28
2022-09-12T15:31:14.215Z,4.97
2022-09-12T15:33:42.516Z,5.50
2022-09-12T15:36:20.892Z,4.25
2022-09-12T15:38:51.521Z,3.97
2022-09-12T15:41:22.096Z,7.07
2022-09-12T15:43:51.166Z,5.72
2022-09-12T15:46:21.543Z,4.00
2022-09-12T15:48:50.118Z,4.35
2022-09-12T15:51:21.035Z,4.53
2022-09-12T15:53:53.034Z,5.43
2022-09-12T15:56:23.730Z,4.80
2022-09-12T15:59:19.717Z,4.90
2022-09-12T16:01:49.203Z,4.68
2022-09-12T16:04:24.733Z,6.25
2022-09-12T16:06:53.855Z,4.80
2022-09-12T16:09:24.373Z,4.85
2022-09-12T16:11:52.890Z,3.67
2022-09-12T16:14:21.417Z,5.47
2022-09-12T16:16:56.101Z,5.75
2022-09-12T16:19:24.637Z,4.93
2022-09-12T16:21:53.033Z,6.85
2022-09-12T16:24:22.998Z,6.03
2022-09-12T16:26:50.999Z,5.50
2022-09-12T16:29:19.442Z,4.53
2022-09-12T16:31:47.708Z,3.67
2022-09-12T16:34:16.352Z,3.95
2022-09-12T16:36:45.244Z,7.47
2022-09-12T16:39:13.754Z,4.32
2022-09-12T16:41:43.674Z,4.70
2022-09-12T16:44:13.270Z,5.55
2022-09-12T16:46:42.060Z,4.25
2022-09-12T16:49:12.074Z,5.68
2022-09-12T16:51:43.832Z,4.30
2022-09-12T16:54:12.041Z,4.65
2022-09-12T16:56:40.410Z,4.78
2022-09-12T16:59:14.202Z,4.32
2022-09-12T17:01:42.449Z,4.63
2022-09-12T17:04:11.928Z,3.92
2022-09-12T17:06:41.899Z,4.07
2022-09-12T17:09:11.497Z,4.93
2022-09-12T17:11:40.685Z,5.43
2022-09-12T17:14:12.084Z,4.97
2022-09-12T17:16:43.185Z,5.90
2022-09-12T17:19:17.299Z,4.18
2022-09-12T17:21:47.174Z,3.75
2022-09-12T17:24:16.099Z,5.07
2022-09-12T17:26:44.633Z,4.13
2022-09-12T17:29:15.872Z,5.47
2022-09-12T17:31:45.195Z,4.03
2022-09-12T17:34:16.288Z,5.15
2022-09-12T17:36:46.522Z,4.15
2022-09-12T17:39:15.724Z,4.00
2022-09-12T17:41:46.030Z,6.03
2022-09-12T17:44:17.343Z,4.68
2022-09-12T17:46:45.941Z,3.45
2022-09-12T17:49:25.035Z,5.35
2022-09-12T17:51:56.338Z,7.63
2022-09-12T17:54:24.755Z,5.40
2022-09-12T17:56:53.120Z,5.82
2022-09-12T17:59:25.249Z,5.63
2022-09-12T18:02:11.944Z,3.75
2022-09-12T18:04:45.815Z,4.72
2022-09-12T18:07:14.583Z,5.55
2022-09-12T18:09:55.322Z,4.20
2022-09-12T18:12:32.439Z,4.10
2022-09-12T18:15:12.760Z,5.38
2022-09-12T18:17:45.137Z,4.68
2022-09-12T18:20:13.960Z,4.07
2022-09-12T18:22:42.237Z,6.95
2022-09-12T18:25:11.423Z,6.53
2022-09-12T18:27:40.304Z,5.45
2022-09-12T18:30:21.651Z,8.20
2022-09-12T18:32:51.145Z,5.97
2022-09-12T18:35:19.800Z,6.10
2022-09-12T18:37:48.308Z,6.82
2022-09-12T18:41:05.956Z,7.43
2022-09-12T18:43:39.020Z,6.88
2022-09-12T18:46:11.485Z,6.60
2022-09-12T18:48:45.626Z,6.93
